sensor_id;sensor_type;location;lat;lon;timestamp;P1;durP1;ratioP1;P2;durP2;ratioP2
12707;SDS011;6418;50.824;4.718;2023-03-13T00:00:27;27.60;;;7.70;;
12707;SDS011;6418;50.824;4.718;2023-03-13T00:02:54;26.40;;;7.83;;
12707;SDS011;6418;50.824;4.718;2023-03-13T00:05:20;22.70;;;7.03;;
12707;SDS011;6418;50.824;4.718;2023-03-13T00:07:49;26.07;;;7.50;;
12707;SDS011;6418;50.824;4.718;2023-03-13T00:10:16;25.93;;;7.20;;
12707;SDS011;6418;50.824;4.718;2023-03-13T00:12:43;26.13;;;7.20;;
12707;SDS011;6418;50.824;4.718;2023-03-13T00:15:10;23.67;;;7.90;;
12707;SDS011;6418;50.824;4.718;2023-03-13T00:17:37;23.30;;;7.00;;
12707;SDS011;6418;50.824;4.718;2023-03-13T00:20:04;25.40;;;7.97;;
12707;SDS011;6418;50.824;4.718;2023-03-13T00:22:33;26.47;;;7.20;;
12707;SDS011;6418;50.824;4.718;2023-03-13T00:25:01;25.80;;;7.40;;
12707;SDS011;6418;50.824;4.718;2023-03-13T00:27:30;25.63;;;8.23;;
12707;SDS011;6418;50.824;4.718;2023-03-13T00:29:58;22.67;;;7.40;;
12707;SDS011;6418;50.824;4.718;2023-03-13T00:32:25;25.30;;;7.30;;
12707;SDS011;6418;50.824;4.718;2023-03-13T00:34:52;27.27;;;7.60;;
12707;SDS011;6418;50.824;4.718;2023-03-13T00:37:19;26.20;;;7.97;;
12707;SDS011;6418;50.824;4.718;2023-03-13T00:39:45;22.27;;;7.20;;
12707;SDS011;6418;50.824;4.718;2023-03-13T00:42:14;25.77;;;7.63;;
12707;SDS011;6418;50.824;4.718;2023-03-13T00:44:41;25.20;;;7.03;;
12707;SDS011;6418;50.824;4.718;2023-03-13T00:47:08;24.87;;;7.80;;
12707;SDS011;6418;50.824;4.718;2023-03-13T00:49:35;21.20;;;7.23;;
12707;SDS011;6418;50.824;4.718;2023-03-13T00:52:02;20.93;;;7.40;;
12707;SDS011;6418;50.824;4.718;2023-03-13T00:54:29;23.43;;;7.43;;
12707;SDS011;6418;50.824;4.718;2023-03-13T00:56:56;19.33;;;6.77;;
12707;SDS011;6418;50.824;4.718;2023-03-13T00:59:24;18.50;;;6.77;;
12707;SDS011;6418;50.824;4.718;2023-03-13T01:01:51;18.27;;;6.93;;
12707;SDS011;6418;50.824;4.718;2023-03-13T01:04:18;22.27;;;7.30;;
12707;SDS011;6418;50.824;4.718;2023-03-13T01:06:45;20.47;;;7.10;;
12707;SDS011;6418;50.824;4.718;2023-03-13T01:09:13;20.73;;;7.43;;
12707;SDS011;6418;50.824;4.718;2023-03-13T01:11:41;17.97;;;6.90;;
12707;SDS011;6418;50.824;4.718;2023-03-13T01:14:10;19.47;;;6.83;;
12707;SDS011;6418;50.824;4.718;2023-03-13T01:16:40;23.23;;;7.70;;
12707;SDS011;6418;50.824;4.718;2023-03-13T01:19:08;19.40;;;7.67;;
12707;SDS011;6418;50.824;4.718;2023-03-13T01:21:37;19.30;;;7.20;;
12707;SDS011;6418;50.824;4.718;2023-03-13T01:24:04;20.13;;;7.80;;
12707;SDS011;6418;50.824;4.718;2023-03-13T01:26:32;17.43;;;7.87;;
12707;SDS011;6418;50.824;4.718;2023-03-13T01:28:59;19.77;;;9.03;;
12707;SDS011;6418;50.824;4.718;2023-03-13T01:31:26;21.70;;;8.93;;
12707;SDS011;6418;50.824;4.718;2023-03-13T01:33:57;19.97;;;9.73;;
12707;SDS011;6418;50.824;4.718;2023-03-13T01:36:25;20.83;;;9.60;;
12707;SDS011;6418;50.824;4.718;2023-03-13T01:38:53;23.30;;;10.43;;
12707;SDS011;6418;50.824;4.718;2023-03-13T01:41:23;20.70;;;10.10;;
12707;SDS011;6418;50.824;4.718;2023-03-13T01:43:51;22.27;;;11.00;;
12707;SDS011;6418;50.824;4.718;2023-03-13T01:46:19;23.57;;;10.77;;
12707;SDS011;6418;50.824;4.718;2023-03-13T01:48:50;23.10;;;11.37;;
12707;SDS011;6418;50.824;4.718;2023-03-13T01:51:21;23.43;;;12.20;;
12707;SDS011;6418;50.824;4.718;2023-03-13T01:53:53;22.93;;;12.40;;
12707;SDS011;6418;50.824;4.718;2023-03-13T01:56:24;23.30;;;12.60;;
12707;SDS011;6418;50.824;4.718;2023-03-13T01:58:54;24.50;;;12.37;;
12707;SDS011;6418;50.824;4.718;2023-03-13T02:01:23;24.40;;;13.33;;
12707;SDS011;6418;50.824;4.718;2023-03-13T02:03:50;25.17;;;12.40;;
12707;SDS011;6418;50.824;4.718;2023-03-13T02:06:18;22.63;;;12.93;;
12707;SDS011;6418;50.824;4.718;2023-03-13T02:08:48;24.10;;;13.00;;
12707;SDS011;6418;50.824;4.718;2023-03-13T02:11:21;24.57;;;13.43;;
12707;SDS011;6418;50.824;4.718;2023-03-13T02:13:55;26.87;;;14.33;;
12707;SDS011;6418;50.824;4.718;2023-03-13T02:16:23;25.30;;;14.13;;
12707;SDS011;6418;50.824;4.718;2023-03-13T02:18:50;29.50;;;14.53;;
12707;SDS011;6418;50.824;4.718;2023-03-13T02:21:19;24.27;;;12.93;;
12707;SDS011;6418;50.824;4.718;2023-03-13T02:24:05;24.07;;;13.80;;
12707;SDS011;6418;50.824;4.718;2023-03-13T02:26:38;22.87;;;13.23;;
12707;SDS011;6418;50.824;4.718;2023-03-13T02:29:06;23.93;;;13.40;;
12707;SDS011;6418;50.824;4.718;2023-03-13T02:31:33;22.90;;;13.30;;
12707;SDS011;6418;50.824;4.718;2023-03-13T02:34:00;23.73;;;15.07;;
12707;SDS011;6418;50.824;4.718;2023-03-13T02:36:27;23.00;;;13.80;;
12707;SDS011;6418;50.824;4.718;2023-03-13T02:38:56;23.57;;;14.20;;
12707;SDS011;6418;50.824;4.718;2023-03-13T02:41:28;23.87;;;14.90;;
12707;SDS011;6418;50.824;4.718;2023-03-13T02:43:58;21.40;;;13.47;;
12707;SDS011;6418;50.824;4.718;2023-03-13T02:46:24;21.47;;;12.77;;
12707;SDS011;6418;50.824;4.718;2023-03-13T02:48:52;21.27;;;13.10;;
12707;SDS011;6418;50.824;4.718;2023-03-13T02:51:21;21.83;;;12.03;;
12707;SDS011;6418;50.824;4.718;2023-03-13T02:53:54;20.80;;;12.93;;
12707;SDS011;6418;50.824;4.718;2023-03-13T02:56:24;21.77;;;13.00;;
12707;SDS011;6418;50.824;4.718;2023-03-13T02:58:52;22.23;;;13.00;;
12707;SDS011;6418;50.824;4.718;2023-03-13T03:01:21;22.13;;;13.53;;
12707;SDS011;6418;50.824;4.718;2023-03-13T03:03:48;19.60;;;12.77;;
12707;SDS011;6418;50.824;4.718;2023-03-13T03:06:15;21.73;;;12.40;;
12707;SDS011;6418;50.824;4.718;2023-03-13T03:08:42;22.10;;;13.30;;
12707;SDS011;6418;50.824;4.718;2023-03-13T03:11:09;23.00;;;13.00;;
12707;SDS011;6418;50.824;4.718;2023-03-13T03:13:37;19.57;;;13.20;;
12707;SDS011;6418;50.824;4.718;2023-03-13T03:16:07;19.90;;;12.23;;
12707;SDS011;6418;50.824;4.718;2023-03-13T03:18:36;21.47;;;12.90;;
12707;SDS011;6418;50.824;4.718;2023-03-13T03:21:04;19.00;;;12.77;;
12707;SDS011;6418;50.824;4.718;2023-03-13T03:23:31;19.50;;;11.60;;
12707;SDS011;6418;50.824;4.718;2023-03-13T03:25:58;19.23;;;11.13;;
12707;SDS011;6418;50.824;4.718;2023-03-13T03:28:26;21.57;;;12.40;;
12707;SDS011;6418;50.824;4.718;2023-03-13T03:30:53;18.27;;;10.53;;
12707;SDS011;6418;50.824;4.718;2023-03-13T03:33:20;19.87;;;10.47;;
12707;SDS011;6418;50.824;4.718;2023-03-13T03:35:48;18.57;;;10.43;;
12707;SDS011;6418;50.824;4.718;2023-03-13T03:38:15;17.83;;;9.60;;
12707;SDS011;6418;50.824;4.718;2023-03-13T03:40:42;16.83;;;9.57;;
12707;SDS011;6418;50.824;4.718;2023-03-13T03:43:09;17.47;;;9.03;;
12707;SDS011;6418;50.824;4.718;2023-03-13T03:45:36;15.50;;;9.23;;
12707;SDS011;6418;50.824;4.718;2023-03-13T03:48:03;16.20;;;8.90;;
12707;SDS011;6418;50.824;4.718;2023-03-13T03:50:30;15.90;;;8.50;;
12707;SDS011;6418;50.824;4.718;2023-03-13T03:52:59;13.67;;;8.40;;
12707;SDS011;6418;50.824;4.718;2023-03-13T03:55:26;15.43;;;8.53;;
12707;SDS011;6418;50.824;4.718;2023-03-13T03:57:52;17.77;;;8.53;;
12707;SDS011;6418;50.824;4.718;2023-03-13T04:00:19;15.87;;;8.00;;
12707;SDS011;6418;50.824;4.718;2023-03-13T04:02:47;13.57;;;7.40;;
12707;SDS011;6418;50.824;4.718;2023-03-13T04:05:14;14.53;;;7.60;;
12707;SDS011;6418;50.824;4.718;2023-03-13T04:07:40;13.77;;;7.33;;
12707;SDS011;6418;50.824;4.718;2023-03-13T04:10:10;14.30;;;7.27;;
12707;SDS011;6418;50.824;4.718;2023-03-13T04:12:37;12.57;;;7.17;;
12707;SDS011;6418;50.824;4.718;2023-03-13T04:15:05;14.80;;;7.00;;
12707;SDS011;6418;50.824;4.718;2023-03-13T04:17:32;12.87;;;6.97;;
12707;SDS011;6418;50.824;4.718;2023-03-13T04:19:59;13.57;;;6.97;;
12707;SDS011;6418;50.824;4.718;2023-03-13T04:22:26;14.57;;;7.37;;
12707;SDS011;6418;50.824;4.718;2023-03-13T04:24:53;17.30;;;6.97;;
12707;SDS011;6418;50.824;4.718;2023-03-13T04:27:21;13.47;;;7.20;;
12707;SDS011;6418;50.824;4.718;2023-03-13T04:29:48;12.70;;;6.57;;
12707;SDS011;6418;50.824;4.718;2023-03-13T04:32:15;13.13;;;6.70;;
12707;SDS011;6418;50.824;4.718;2023-03-13T04:34:42;12.23;;;6.63;;
12707;SDS011;6418;50.824;4.718;2023-03-13T04:37:09;14.43;;;6.47;;
12707;SDS011;6418;50.824;4.718;2023-03-13T04:39:36;14.73;;;6.17;;
12707;SDS011;6418;50.824;4.718;2023-03-13T04:42:03;11.17;;;5.80;;
12707;SDS011;6418;50.824;4.718;2023-03-13T04:44:31;11.90;;;6.33;;
12707;SDS011;6418;50.824;4.718;2023-03-13T04:46:58;13.40;;;6.10;;
12707;SDS011;6418;50.824;4.718;2023-03-13T04:49:25;13.10;;;6.43;;
12707;SDS011;6418;50.824;4.718;2023-03-13T04:51:52;15.87;;;6.40;;
12707;SDS011;6418;50.824;4.718;2023-03-13T04:54:18;14.97;;;5.50;;
12707;SDS011;6418;50.824;4.718;2023-03-13T04:56:46;14.57;;;5.93;;
12707;SDS011;6418;50.824;4.718;2023-03-13T04:59:14;11.43;;;6.00;;
12707;SDS011;6418;50.824;4.718;2023-03-13T05:01:42;13.77;;;5.70;;
12707;SDS011;6418;50.824;4.718;2023-03-13T05:04:10;16.63;;;6.43;;
12707;SDS011;6418;50.824;4.718;2023-03-13T05:06:37;13.97;;;5.80;;
12707;SDS011;6418;50.824;4.718;2023-03-13T05:09:04;12.10;;;5.67;;
12707;SDS011;6418;50.824;4.718;2023-03-13T05:11:31;13.33;;;5.83;;
12707;SDS011;6418;50.824;4.718;2023-03-13T05:13:59;14.23;;;6.00;;
12707;SDS011;6418;50.824;4.718;2023-03-13T05:16:26;14.27;;;5.70;;
12707;SDS011;6418;50.824;4.718;2023-03-13T05:18:54;11.57;;;5.60;;
12707;SDS011;6418;50.824;4.718;2023-03-13T05:21:21;15.40;;;6.27;;
12707;SDS011;6418;50.824;4.718;2023-03-13T05:23:48;11.87;;;5.30;;
12707;SDS011;6418;50.824;4.718;2023-03-13T05:26:15;15.33;;;5.40;;
12707;SDS011;6418;50.824;4.718;2023-03-13T05:28:42;12.83;;;5.37;;
12707;SDS011;6418;50.824;4.718;2023-03-13T05:31:08;14.70;;;5.33;;
12707;SDS011;6418;50.824;4.718;2023-03-13T05:33:35;11.53;;;5.40;;
12707;SDS011;6418;50.824;4.718;2023-03-13T05:36:04;14.57;;;5.57;;
12707;SDS011;6418;50.824;4.718;2023-03-13T05:38:31;11.43;;;5.00;;
12707;SDS011;6418;50.824;4.718;2023-03-13T05:40:58;10.80;;;5.10;;
12707;SDS011;6418;50.824;4.718;2023-03-13T05:43:25;16.37;;;5.50;;
12707;SDS011;6418;50.824;4.718;2023-03-13T05:45:52;12.37;;;5.47;;
12707;SDS011;6418;50.824;4.718;2023-03-13T05:48:19;16.73;;;5.70;;
12707;SDS011;6418;50.824;4.718;2023-03-13T05:50:45;12.67;;;5.37;;
12707;SDS011;6418;50.824;4.718;2023-03-13T05:53:14;12.30;;;5.23;;
12707;SDS011;6418;50.824;4.718;2023-03-13T05:55:41;14.60;;;5.80;;
12707;SDS011;6418;50.824;4.718;2023-03-13T05:58:07;13.50;;;5.17;;
12707;SDS011;6418;50.824;4.718;2023-03-13T06:00:34;13.67;;;5.63;;
12707;SDS011;6418;50.824;4.718;2023-03-13T06:03:01;13.20;;;5.40;;
12707;SDS011;6418;50.824;4.718;2023-03-13T06:05:28;11.30;;;5.50;;
12707;SDS011;6418;50.824;4.718;2023-03-13T06:07:55;13.30;;;5.60;;
12707;SDS011;6418;50.824;4.718;2023-03-13T06:10:24;11.67;;;5.30;;
12707;SDS011;6418;50.824;4.718;2023-03-13T06:12:51;15.23;;;5.50;;
12707;SDS011;6418;50.824;4.718;2023-03-13T06:15:18;14.30;;;5.30;;
12707;SDS011;6418;50.824;4.718;2023-03-13T06:17:45;14.57;;;5.80;;
12707;SDS011;6418;50.824;4.718;2023-03-13T06:20:12;13.67;;;5.30;;
12707;SDS011;6418;50.824;4.718;2023-03-13T06:22:40;16.77;;;5.50;;
12707;SDS011;6418;50.824;4.718;2023-03-13T06:25:07;13.87;;;5.30;;
12707;SDS011;6418;50.824;4.718;2023-03-13T06:27:36;12.90;;;5.17;;
12707;SDS011;6418;50.824;4.718;2023-03-13T06:30:03;13.20;;;5.20;;
12707;SDS011;6418;50.824;4.718;2023-03-13T06:32:30;15.90;;;5.50;;
12707;SDS011;6418;50.824;4.718;2023-03-13T06:34:57;14.47;;;5.30;;
12707;SDS011;6418;50.824;4.718;2023-03-13T06:37:24;16.63;;;5.80;;
12707;SDS011;6418;50.824;4.718;2023-03-13T06:39:50;15.33;;;5.17;;
12707;SDS011;6418;50.824;4.718;2023-03-13T06:42:17;14.03;;;5.27;;
12707;SDS011;6418;50.824;4.718;2023-03-13T06:44:46;13.77;;;5.23;;
12707;SDS011;6418;50.824;4.718;2023-03-13T06:47:12;15.83;;;5.33;;
12707;SDS011;6418;50.824;4.718;2023-03-13T06:49:39;14.83;;;5.50;;
12707;SDS011;6418;50.824;4.718;2023-03-13T06:52:07;18.57;;;5.43;;
12707;SDS011;6418;50.824;4.718;2023-03-13T06:54:34;13.20;;;5.50;;
12707;SDS011;6418;50.824;4.718;2023-03-13T06:57:01;16.97;;;6.07;;
12707;SDS011;6418;50.824;4.718;2023-03-13T06:59:27;13.53;;;5.00;;
12707;SDS011;6418;50.824;4.718;2023-03-13T07:01:56;14.40;;;5.03;;
12707;SDS011;6418;50.824;4.718;2023-03-13T07:04:23;14.60;;;5.27;;
12707;SDS011;6418;50.824;4.718;2023-03-13T07:06:50;16.90;;;5.20;;
12707;SDS011;6418;50.824;4.718;2023-03-13T07:09:17;16.87;;;5.83;;
12707;SDS011;6418;50.824;4.718;2023-03-13T07:11:44;16.97;;;5.70;;
12707;SDS011;6418;50.824;4.718;2023-03-13T07:14:11;13.10;;;5.10;;
12707;SDS011;6418;50.824;4.718;2023-03-13T07:16:38;18.03;;;5.90;;
12707;SDS011;6418;50.824;4.718;2023-03-13T07:19:07;14.57;;;5.37;;
12707;SDS011;6418;50.824;4.718;2023-03-13T07:21:33;14.77;;;5.70;;
12707;SDS011;6418;50.824;4.718;2023-03-13T07:24:00;15.70;;;5.50;;
12707;SDS011;6418;50.824;4.718;2023-03-13T07:26:28;16.27;;;5.60;;
12707;SDS011;6418;50.824;4.718;2023-03-13T07:28:55;13.80;;;5.33;;
12707;SDS011;6418;50.824;4.718;2023-03-13T07:31:22;11.33;;;5.03;;
12707;SDS011;6418;50.824;4.718;2023-03-13T16:13:20;14.27;;;4.00;;
12707;SDS011;6418;50.824;4.718;2023-03-13T16:15:46;14.87;;;4.20;;
12707;SDS011;6418;50.824;4.718;2023-03-13T16:18:15;12.13;;;4.07;;
12707;SDS011;6418;50.824;4.718;2023-03-13T16:20:45;15.30;;;4.00;;
12707;SDS011;6418;50.824;4.718;2023-03-13T16:23:13;15.20;;;4.07;;
12707;SDS011;6418;50.824;4.718;2023-03-13T16:25:40;11.87;;;4.10;;
12707;SDS011;6418;50.824;4.718;2023-03-13T16:28:09;13.57;;;4.40;;
12707;SDS011;6418;50.824;4.718;2023-03-13T16:30:38;14.77;;;4.40;;
12707;SDS011;6418;50.824;4.718;2023-03-13T16:33:08;14.87;;;4.30;;
12707;SDS011;6418;50.824;4.718;2023-03-13T16:35:35;13.60;;;4.27;;
12707;SDS011;6418;50.824;4.718;2023-03-13T16:38:02;15.10;;;4.47;;
12707;SDS011;6418;50.824;4.718;2023-03-13T16:40:32;12.13;;;4.30;;
12707;SDS011;6418;50.824;4.718;2023-03-13T16:42:59;13.43;;;4.40;;
12707;SDS011;6418;50.824;4.718;2023-03-13T16:45:26;14.80;;;4.37;;
12707;SDS011;6418;50.824;4.718;2023-03-13T16:47:55;13.50;;;4.20;;
12707;SDS011;6418;50.824;4.718;2023-03-13T16:50:23;14.20;;;4.30;;
12707;SDS011;6418;50.824;4.718;2023-03-13T16:52:53;12.67;;;4.43;;
12707;SDS011;6418;50.824;4.718;2023-03-13T16:55:20;12.10;;;4.40;;
12707;SDS011;6418;50.824;4.718;2023-03-13T16:57:52;14.23;;;4.70;;
12707;SDS011;6418;50.824;4.718;2023-03-13T17:00:20;11.70;;;4.40;;
12707;SDS011;6418;50.824;4.718;2023-03-13T17:02:48;13.63;;;4.63;;
12707;SDS011;6418;50.824;4.718;2023-03-13T17:05:16;11.37;;;4.63;;
12707;SDS011;6418;50.824;4.718;2023-03-13T17:07:43;12.50;;;4.50;;
12707;SDS011;6418;50.824;4.718;2023-03-13T17:10:15;15.93;;;5.20;;
12707;SDS011;6418;50.824;4.718;2023-03-13T17:12:45;14.17;;;5.10;;
12707;SDS011;6418;50.824;4.718;2023-03-13T17:15:12;13.27;;;4.60;;
12707;SDS011;6418;50.824;4.718;2023-03-13T17:17:39;13.93;;;5.60;;
12707;SDS011;6418;50.824;4.718;2023-03-13T17:20:10;13.53;;;4.83;;
12707;SDS011;6418;50.824;4.718;2023-03-13T17:22:40;16.37;;;5.30;;
12707;SDS011;6418;50.824;4.718;2023-03-13T17:25:08;14.63;;;4.97;;
12707;SDS011;6418;50.824;4.718;2023-03-13T17:27:35;15.57;;;4.87;;
12707;SDS011;6418;50.824;4.718;2023-03-13T17:30:02;12.50;;;4.40;;
12707;SDS011;6418;50.824;4.718;2023-03-13T17:32:40;12.60;;;4.27;;
12707;SDS011;6418;50.824;4.718;2023-03-13T17:35:07;17.30;;;6.47;;
12707;SDS011;6418;50.824;4.718;2023-03-13T17:37:34;17.40;;;8.07;;
12707;SDS011;6418;50.824;4.718;2023-03-13T17:40:05;19.03;;;9.40;;
12707;SDS011;6418;50.824;4.718;2023-03-13T17:42:41;17.83;;;7.30;;
12707;SDS011;6418;50.824;4.718;2023-03-13T17:45:08;15.77;;;5.60;;
12707;SDS011;6418;50.824;4.718;2023-03-13T17:47:35;11.57;;;4.20;;
12707;SDS011;6418;50.824;4.718;2023-03-13T17:50:02;16.50;;;5.40;;
12707;SDS011;6418;50.824;4.718;2023-03-13T17:52:34;16.90;;;6.03;;
12707;SDS011;6418;50.824;4.718;2023-03-13T17:55:03;19.00;;;5.63;;
12707;SDS011;6418;50.824;4.718;2023-03-13T17:57:31;11.60;;;4.47;;
12707;SDS011;6418;50.824;4.718;2023-03-13T17:59:58;17.57;;;4.60;;
12707;SDS011;6418;50.824;4.718;2023-03-13T18:02:26;14.10;;;5.17;;
12707;SDS011;6418;50.824;4.718;2023-03-13T18:04:52;14.17;;;4.97;;
12707;SDS011;6418;50.824;4.718;2023-03-13T18:07:21;13.80;;;4.30;;
12707;SDS011;6418;50.824;4.718;2023-03-13T18:09:50;13.00;;;4.30;;
12707;SDS011;6418;50.824;4.718;2023-03-13T18:12:18;15.77;;;4.70;;
12707;SDS011;6418;50.824;4.718;2023-03-13T18:14:45;12.47;;;4.80;;
12707;SDS011;6418;50.824;4.718;2023-03-13T18:17:14;13.03;;;4.73;;
12707;SDS011;6418;50.824;4.718;2023-03-13T18:19:42;14.77;;;4.73;;
12707;SDS011;6418;50.824;4.718;2023-03-13T18:22:11;14.83;;;4.90;;
12707;SDS011;6418;50.824;4.718;2023-03-13T18:24:39;12.20;;;4.70;;
12707;SDS011;6418;50.824;4.718;2023-03-13T18:27:09;14.27;;;4.90;;
12707;SDS011;6418;50.824;4.718;2023-03-13T18:29:39;11.97;;;5.20;;
12707;SDS011;6418;50.824;4.718;2023-03-13T18:32:06;14.00;;;4.70;;
12707;SDS011;6418;50.824;4.718;2023-03-13T18:34:35;14.87;;;5.27;;
12707;SDS011;6418;50.824;4.718;2023-03-13T18:37:02;14.67;;;4.70;;
12707;SDS011;6418;50.824;4.718;2023-03-13T18:39:31;12.40;;;4.80;;
12707;SDS011;6418;50.824;4.718;2023-03-13T18:41:58;13.33;;;4.60;;
12707;SDS011;6418;50.824;4.718;2023-03-13T18:44:26;16.07;;;4.90;;
12707;SDS011;6418;50.824;4.718;2023-03-13T18:46:54;15.33;;;4.80;;
12707;SDS011;6418;50.824;4.718;2023-03-13T18:49:21;13.07;;;4.93;;
12707;SDS011;6418;50.824;4.718;2023-03-13T18:51:49;13.00;;;5.17;;
12707;SDS011;6418;50.824;4.718;2023-03-13T18:54:17;15.20;;;5.50;;
12707;SDS011;6418;50.824;4.718;2023-03-13T18:56:45;13.20;;;4.83;;
12707;SDS011;6418;50.824;4.718;2023-03-13T18:59:13;14.10;;;5.60;;
12707;SDS011;6418;50.824;4.718;2023-03-13T19:01:44;13.73;;;4.57;;
12707;SDS011;6418;50.824;4.718;2023-03-13T19:04:13;15.23;;;5.30;;
12707;SDS011;6418;50.824;4.718;2023-03-13T19:06:41;13.63;;;4.53;;
12707;SDS011;6418;50.824;4.718;2023-03-13T19:09:11;13.90;;;5.50;;
12707;SDS011;6418;50.824;4.718;2023-03-13T19:11:40;18.30;;;10.03;;
12707;SDS011;6418;50.824;4.718;2023-03-13T19:14:08;16.23;;;5.87;;
12707;SDS011;6418;50.824;4.718;2023-03-13T19:16:36;13.10;;;4.80;;
12707;SDS011;6418;50.824;4.718;2023-03-13T19:19:09;13.37;;;5.13;;
12707;SDS011;6418;50.824;4.718;2023-03-13T19:21:39;13.33;;;4.60;;
12707;SDS011;6418;50.824;4.718;2023-03-13T19:24:06;15.90;;;5.33;;
12707;SDS011;6418;50.824;4.718;2023-03-13T19:26:34;13.43;;;4.73;;
12707;SDS011;6418;50.824;4.718;2023-03-13T19:29:05;12.23;;;4.87;;
12707;SDS011;6418;50.824;4.718;2023-03-13T19:31:37;11.17;;;4.40;;
12707;SDS011;6418;50.824;4.718;2023-03-13T19:34:04;12.67;;;4.60;;
12707;SDS011;6418;50.824;4.718;2023-03-13T19:36:32;10.50;;;4.40;;
12707;SDS011;6418;50.824;4.718;2023-03-13T19:39:04;10.83;;;4.67;;
12707;SDS011;6418;50.824;4.718;2023-03-13T19:41:37;12.00;;;4.70;;
12707;SDS011;6418;50.824;4.718;2023-03-13T19:44:03;11.50;;;4.63;;
12707;SDS011;6418;50.824;4.718;2023-03-13T19:46:30;12.90;;;4.27;;
12707;SDS011;6418;50.824;4.718;2023-03-13T19:48:59;12.57;;;4.63;;
12707;SDS011;6418;50.824;4.718;2023-03-13T19:51:27;13.10;;;4.83;;
12707;SDS011;6418;50.824;4.718;2023-03-13T19:53:55;11.90;;;4.60;;
12707;SDS011;6418;50.824;4.718;2023-03-13T19:56:25;12.07;;;4.80;;
12707;SDS011;6418;50.824;4.718;2023-03-13T19:58:55;11.60;;;4.70;;
12707;SDS011;6418;50.824;4.718;2023-03-13T20:01:23;13.13;;;5.30;;
12707;SDS011;6418;50.824;4.718;2023-03-13T20:03:51;13.47;;;4.50;;
12707;SDS011;6418;50.824;4.718;2023-03-13T20:06:18;11.27;;;4.63;;
12707;SDS011;6418;50.824;4.718;2023-03-13T20:08:46;12.70;;;4.93;;
12707;SDS011;6418;50.824;4.718;2023-03-13T20:11:13;12.67;;;4.37;;
12707;SDS011;6418;50.824;4.718;2023-03-13T20:13:42;12.07;;;4.67;;
12707;SDS011;6418;50.824;4.718;2023-03-13T20:16:09;11.23;;;4.70;;
12707;SDS011;6418;50.824;4.718;2023-03-13T20:18:36;14.03;;;4.83;;
12707;SDS011;6418;50.824;4.718;2023-03-13T20:21:03;13.57;;;4.80;;
12707;SDS011;6418;50.824;4.718;2023-03-13T20:23:30;9.90;;;4.33;;
12707;SDS011;6418;50.824;4.718;2023-03-13T20:26:00;12.27;;;4.83;;
12707;SDS011;6418;50.824;4.718;2023-03-13T20:28:28;12.40;;;4.80;;
12707;SDS011;6418;50.824;4.718;2023-03-13T20:30:56;10.83;;;4.63;;
12707;SDS011;6418;50.824;4.718;2023-03-13T20:33:23;13.57;;;4.93;;
12707;SDS011;6418;50.824;4.718;2023-03-13T20:35:50;11.97;;;4.73;;
12707;SDS011;6418;50.824;4.718;2023-03-13T20:38:21;10.97;;;4.60;;
12707;SDS011;6418;50.824;4.718;2023-03-13T20:40:49;15.53;;;5.10;;
12707;SDS011;6418;50.824;4.718;2023-03-13T20:43:17;10.73;;;4.63;;
12707;SDS011;6418;50.824;4.718;2023-03-13T20:45:44;10.57;;;4.90;;
12707;SDS011;6418;50.824;4.718;2023-03-13T20:48:12;13.83;;;5.00;;
12707;SDS011;6418;50.824;4.718;2023-03-13T20:50:39;14.53;;;4.93;;
12707;SDS011;6418;50.824;4.718;2023-03-13T20:53:07;14.90;;;5.10;;
12707;SDS011;6418;50.824;4.718;2023-03-13T20:55:35;17.37;;;5.20;;
12707;SDS011;6418;50.824;4.718;2023-03-13T20:58:02;12.37;;;4.70;;
12707;SDS011;6418;50.824;4.718;2023-03-13T21:00:29;10.93;;;4.50;;
12707;SDS011;6418;50.824;4.718;2023-03-13T21:02:56;12.60;;;4.40;;
12707;SDS011;6418;50.824;4.718;2023-03-13T21:05:25;16.50;;;4.83;;
12707;SDS011;6418;50.824;4.718;2023-03-13T21:07:52;11.07;;;4.57;;
12707;SDS011;6418;50.824;4.718;2023-03-13T21:10:19;14.33;;;4.80;;
12707;SDS011;6418;50.824;4.718;2023-03-13T21:12:46;9.50;;;4.37;;
12707;SDS011;6418;50.824;4.718;2023-03-13T21:15:13;12.67;;;4.87;;
12707;SDS011;6418;50.824;4.718;2023-03-13T21:17:40;13.00;;;4.37;;
12707;SDS011;6418;50.824;4.718;2023-03-13T21:20:08;11.17;;;4.43;;
12707;SDS011;6418;50.824;4.718;2023-03-13T21:22:37;11.83;;;4.50;;
12707;SDS011;6418;50.824;4.718;2023-03-13T21:25:05;14.57;;;5.47;;
12707;SDS011;6418;50.824;4.718;2023-03-13T21:27:33;12.03;;;4.87;;
12707;SDS011;6418;50.824;4.718;2023-03-13T21:30:00;14.97;;;6.10;;
12707;SDS011;6418;50.824;4.718;2023-03-13T21:32:29;12.80;;;5.53;;
12707;SDS011;6418;50.824;4.718;2023-03-13T21:34:55;11.73;;;5.10;;
12707;SDS011;6418;50.824;4.718;2023-03-13T21:37:22;14.57;;;6.33;;
12707;SDS011;6418;50.824;4.718;2023-03-13T21:39:51;16.40;;;6.00;;
12707;SDS011;6418;50.824;4.718;2023-03-13T21:42:18;17.47;;;7.10;;
12707;SDS011;6418;50.824;4.718;2023-03-13T21:44:45;12.90;;;4.93;;
12707;SDS011;6418;50.824;4.718;2023-03-13T21:47:13;13.43;;;5.47;;
12707;SDS011;6418;50.824;4.718;2023-03-13T21:49:42;13.33;;;5.17;;
12707;SDS011;6418;50.824;4.718;2023-03-13T21:52:09;10.33;;;4.87;;
12707;SDS011;6418;50.824;4.718;2023-03-13T21:54:36;12.77;;;5.00;;
12707;SDS011;6418;50.824;4.718;2023-03-13T21:57:04;17.27;;;5.30;;
12707;SDS011;6418;50.824;4.718;2023-03-13T21:59:31;12.17;;;4.60;;
12707;SDS011;6418;50.824;4.718;2023-03-13T22:01:58;12.97;;;4.70;;
12707;SDS011;6418;50.824;4.718;2023-03-13T22:04:25;14.70;;;5.03;;
12707;SDS011;6418;50.824;4.718;2023-03-13T22:06:52;15.97;;;4.83;;
12707;SDS011;6418;50.824;4.718;2023-03-13T22:09:19;12.23;;;4.63;;
12707;SDS011;6418;50.824;4.718;2023-03-13T22:11:46;14.07;;;5.13;;
12707;SDS011;6418;50.824;4.718;2023-03-13T22:14:14;13.30;;;4.87;;
12707;SDS011;6418;50.824;4.718;2023-03-13T22:16:41;12.67;;;4.40;;
12707;SDS011;6418;50.824;4.718;2023-03-13T22:19:08;15.93;;;5.00;;
12707;SDS011;6418;50.824;4.718;2023-03-13T22:21:36;14.07;;;4.60;;
12707;SDS011;6418;50.824;4.718;2023-03-13T22:24:03;13.53;;;4.97;;
12707;SDS011;6418;50.824;4.718;2023-03-13T22:26:30;12.80;;;4.60;;
12707;SDS011;6418;50.824;4.718;2023-03-13T22:28:57;14.50;;;5.00;;
12707;SDS011;6418;50.824;4.718;2023-03-13T22:31:25;14.30;;;4.57;;
12707;SDS011;6418;50.824;4.718;2023-03-13T22:33:52;12.77;;;4.97;;
12707;SDS011;6418;50.824;4.718;2023-03-13T22:36:19;12.53;;;4.53;;
12707;SDS011;6418;50.824;4.718;2023-03-13T22:38:46;15.87;;;4.77;;
12707;SDS011;6418;50.824;4.718;2023-03-13T22:41:14;15.23;;;4.70;;
12707;SDS011;6418;50.824;4.718;2023-03-13T22:43:41;12.60;;;4.73;;
12707;SDS011;6418;50.824;4.718;2023-03-13T22:46:08;10.70;;;4.40;;
12707;SDS011;6418;50.824;4.718;2023-03-13T22:48:37;10.87;;;4.33;;
12707;SDS011;6418;50.824;4.718;2023-03-13T22:51:05;11.53;;;4.57;;
12707;SDS011;6418;50.824;4.718;2023-03-13T22:53:34;13.80;;;4.77;;
12707;SDS011;6418;50.824;4.718;2023-03-13T22:56:02;11.80;;;4.20;;
12707;SDS011;6418;50.824;4.718;2023-03-13T22:58:29;11.07;;;4.33;;
12707;SDS011;6418;50.824;4.718;2023-03-13T23:00:57;10.40;;;4.30;;
12707;SDS011;6418;50.824;4.718;2023-03-13T23:03:24;12.57;;;4.70;;
12707;SDS011;6418;50.824;4.718;2023-03-13T23:05:52;9.13;;;3.77;;
12707;SDS011;6418;50.824;4.718;2023-03-13T23:08:19;12.60;;;4.57;;
12707;SDS011;6418;50.824;4.718;2023-03-13T23:10:46;14.07;;;5.27;;
12707;SDS011;6418;50.824;4.718;2023-03-13T23:13:14;15.50;;;6.20;;
12707;SDS011;6418;50.824;4.718;2023-03-13T23:15:41;9.10;;;3.73;;
12707;SDS011;6418;50.824;4.718;2023-03-13T23:18:08;9.90;;;3.60;;
12707;SDS011;6418;50.824;4.718;2023-03-13T23:20:35;8.97;;;3.90;;
12707;SDS011;6418;50.824;4.718;2023-03-13T23:23:04;10.07;;;3.87;;
12707;SDS011;6418;50.824;4.718;2023-03-13T23:25:31;11.63;;;3.83;;
12707;SDS011;6418;50.824;4.718;2023-03-13T23:27:57;11.37;;;3.90;;